Data for 01/16/2013

Time Sea-Level Adjusted Pressure Absolute Pressure Temperature Relative Humidity Dew Point   
(mb) (inHg) (mb) (inHg) (C) (F) (%) (C) (F)
00:05 1026 30.3 856 25.28 -7.6 18.3 82 -10.2 13.7
00:10 1026 30.3 856 25.28 -7.8 17.9 83 -10.3 13.5
00:15 1026 30.3 856 25.28 -8.2 17.3 88 -9.9 14.2
00:20 1026 30.3 855 25.25 -7.4 18.7 84 -9.7 14.5
00:25 1026 30.3 856 25.28 -7.6 18.3 80 -10.5 13.2
00:30 1026 30.3 856 25.28 -8.5 16.7 85 -10.6 13
00:35 1026 30.3 855 25.25 -7.9 17.7 83 -10.4 13.3
00:40 1026 30.3 856 25.28 -7.9 17.8 82 -10.4 13.2
00:45 1026 30.3 856 25.28 -8 17.7 82 -10.6 13
00:50 1026 30.3 856 25.28 -8.4 16.9 86 -10.3 13.4
00:55 1026 30.3 856 25.28 -8.4 16.8 87 -10.2 13.6
01:00 1026 30.3 856 25.28 -8.3 17.1 85 -10.3 13.5
01:05 1026 30.3 855 25.25 -7.7 18.1 80 -10.6 12.9
01:10 1026 30.3 856 25.28 -7.5 18.6 79 -10.5 13.1
01:15 1026 30.3 856 25.28 -7.3 18.9 77 -10.7 12.7
01:20 1026 30.3 856 25.28 -6.8 19.8 75 -10.6 13
01:25 1026 30.3 856 25.28 -7 19.5 75 -10.7 12.7
01:30 1026 30.3 856 25.28 -6.9 19.7 73 -10.9 12.4
01:35 1026 30.3 856 25.28 -6.9 19.6 76 -10.4 13.3
01:40 1026 30.3 856 25.28 -7.2 19.1 74 -11.2 11.9
01:45 1026 30.3 856 25.28 -6.5 20.3 74 -10.5 13.2
01:50 1026 30.3 856 25.28 -7 19.4 77 -10.4 13.2
01:55 1026 30.3 856 25.28 -7.3 18.8 80 -10.2 13.7
02:00 1026 30.3 856 25.28 -6.9 19.6 77 -10.2 13.6
02:05 1026 30.3 856 25.28 -6.8 19.8 79 -9.9 14.2
02:10 1026 30.3 856 25.28 -6.8 19.8 78 -10 14
02:15 1026 30.3 856 25.28 -6.5 20.4 75 -10.3 13.5
02:20 1026 30.3 856 25.28 -6.1 21 72 -10.5 13.2
02:25 1026 30.3 856 25.28 -6.4 20.6 71 -10.7 12.7
02:30 1026 30.3 855 25.25 -6.5 20.2 69 -11.3 11.6
02:35 1026 30.3 855 25.25 -6.3 20.6 67 -11.6 11.1
02:40 1026 30.3 855 25.25 -6.2 20.8 66 -11.6 11.2
02:45 1026 30.3 856 25.28 -6.1 21 64 -11.8 10.7
02:50 1026 30.3 855 25.25 -6 21.1 64 -11.9 10.7
02:55 1026 30.3 855 25.25 -6 21.1 63 -12 10.5
03:00 1026 30.3 856 25.28 -5.9 21.4 63 -11.9 10.6
03:05 1026 30.3 856 25.28 -5.9 21.4 63 -11.9 10.6
03:10 1026 30.3 856 25.28 -5.6 22 62 -11.7 10.9
03:15 1026 30.3 856 25.28 -5.6 22 62 -11.8 10.8
03:20 1026 30.3 856 25.28 -5.5 22.1 62 -11.6 11
03:25 1026 30.3 856 25.28 -5.5 22 62 -11.7 10.9
03:30 1026 30.3 856 25.28 -5.3 22.4 61 -11.7 10.9
03:35 1026 30.3 856 25.28 -5.1 22.9 61 -11.5 11.3
03:40 1026 30.3 856 25.28 -5.5 22.1 63 -11.4 11.5
03:45 1026 30.3 856 25.28 -6 21.2 65 -11.6 11.1
03:50 1026 30.3 856 25.28 -6.3 20.7 65 -11.7 10.9
03:55 1026 30.3 856 25.28 -6.2 20.8 65 -11.8 10.8
04:00 1026 30.3 856 25.28 -6.3 20.6 66 -11.6 11.1
04:05 1026 30.3 856 25.28 -6.6 20.1 67 -11.7 10.9
04:10 1026 30.3 856 25.28 -6.4 20.6 65 -11.9 10.6
04:15 1026 30.3 856 25.28 -6.2 20.8 64 -11.9 10.6
04:20 1026 30.3 856 25.28 -6 21.3 65 -11.6 11.2
04:25 1026 30.3 856 25.28 -6.2 20.9 66 -11.5 11.3
04:30 1026 30.3 855 25.25 -6 21.2 65 -11.6 11.2
04:35 1026 30.3 856 25.28 -5.8 21.5 65 -11.3 11.7
04:40 1026 30.3 856 25.28 -5.3 22.4 64 -11.2 11.9
04:45 1026 30.3 856 25.28 -5.3 22.5 62 -11.4 11.6
04:50 1026 30.3 855 25.25 -5.5 22.1 63 -11.4 11.6
04:55 1026 30.3 855 25.25 -5.5 22 63 -11.5 11.3
05:00 1026 30.3 855 25.25 -5.4 22.3 63 -11.5 11.4
05:05 1026 30.3 855 25.25 -4.9 23.1 60 -11.4 11.4
05:10 1026 30.3 855 25.25 -4.3 24.2 57 -11.7 11
05:15 1026 30.3 855 25.25 -5.5 22.1 63 -11.5 11.4
05:20 1026 30.3 855 25.25 -6.1 21.1 64 -11.9 10.6
05:25 1026 30.3 855 25.25 -5.7 21.8 60 -12.2 10.1
05:30 1026 30.3 855 25.25 -4.8 23.4 57 -12.1 10.2
05:35 1026 30.3 855 25.25 -5.3 22.5 60 -12 10.4
05:40 1026 30.3 855 25.25 -5.8 21.6 61 -12.1 10.3
05:45 1026 30.3 855 25.25 -6.1 21 63 -12.1 10.1
05:50 1026 30.3 855 25.25 -6.4 20.5 62 -12.6 9.4
05:55 1026 30.3 855 25.25 -6 21.2 61 -12.3 9.8
06:00 1026 30.3 855 25.25 -6.1 21.1 61 -12.5 9.5
06:05 1026 30.3 855 25.25 -5.4 22.3 58 -12.3 9.9
06:10 1026 30.3 855 25.25 -5.4 22.2 61 -11.9 10.7
06:15 1026 30.3 855 25.25 -4.5 23.9 55 -12.2 10.1
06:20 1026 30.3 855 25.25 -3.3 26.1 53 -11.5 11.3
06:25 1026 30.3 855 25.25 -3.3 26.1 54 -11.2 11.8
06:30 1026 30.3 855 25.25 -3.2 26.2 53 -11.5 11.3
06:35 1026 30.3 855 25.25 -3.2 26.3 53 -11.5 11.2
06:40 1026 30.3 855 25.25 -3.5 25.8 53 -11.8 10.7
06:45 1026 30.3 855 25.25 -4.4 24.1 58 -11.5 11.4
06:50 1026 30.3 855 25.25 -3.9 24.9 54 -11.9 10.6
06:55 1026 30.3 855 25.25 -4.7 23.5 58 -11.7 11
07:00 1026 30.3 855 25.25 -4.9 23.1 58 -11.9 10.6
07:05 1026 30.3 855 25.25 -4.3 24.3 56 -11.7 10.9
07:10 1026 30.3 855 25.25 -4.2 24.4 56 -11.7 10.9
07:15 1026 30.3 855 25.25 -4.1 24.5 55 -12 10.5
07:20 1026 30.3 855 25.25 -3.8 25.2 53 -12 10.4
07:25 1026 30.3 855 25.25 -3.8 25.2 54 -11.9 10.5
07:30 1026 30.3 855 25.25 -3.5 25.7 53 -11.6 11.1
07:35 1026 30.3 855 25.25 -3.6 25.6 54 -11.5 11.2
07:40 1026 30.3 855 25.25 -3.9 24.9 53 -12.1 10.3
07:45 1026 30.3 855 25.25 -3.6 25.5 52 -12 10.4
07:50 1026 30.3 855 25.25 -3.6 25.5 55 -11.3 11.7
07:55 1026 30.3 855 25.25 -3.2 26.3 52 -11.7 11
08:00 1026 30.3 855 25.25 -3 26.7 50 -11.9 10.6
08:05 1026 30.3 855 25.25 -4 24.8 54 -11.9 10.6
08:10 1026 30.3 855 25.25 -4.1 24.7 54 -12.1 10.2
08:15 1026 30.3 855 25.25 -3.5 25.8 50 -12.4 9.8
08:20 1026 30.3 855 25.25 -3.2 26.2 49 -12.3 9.8
08:25 1026 30.3 855 25.25 -3 26.7 50 -12 10.3
08:30 1026 30.3 855 25.25 -3.1 26.4 50 -12.2 10
08:35 1026 30.3 855 25.25 -3.1 26.4 49 -12.4 9.6
08:40 1026 30.3 855 25.25 -3.1 26.4 50 -12.2 10
08:45 1026 30.3 855 25.25 -3.3 26.1 50 -12.2 10.1
08:50 1026 30.3 855 25.25 -3.2 26.2 53 -11.5 11.3
08:55 1026 30.3 855 25.25 -3 26.5 51 -11.7 10.9
09:00 1026 30.3 855 25.25 -3.2 26.2 50 -12.3 9.8
09:05 1026 30.3 855 25.25 -1.7 28.9 45 -12.1 10.2
09:10 1026 30.3 855 25.25 -1.5 29.3 45 -12 10.5
09:15 1026 30.3 855 25.25 -2.2 28 49 -11.5 11.2
09:20 1026 30.3 855 25.25 -2.6 27.3 50 -11.7 10.9
09:25 1026 30.3 855 25.25 -3 26.6 49 -12.4 9.8
09:30 1026 30.3 855 25.25 -2.8 27 49 -12.1 10.2
09:35 1026 30.3 856 25.28 -3.4 25.9 55 -11.2 11.9
09:40 1026 30.3 856 25.28 -3.7 25.3 52 -12.2 10
09:45 1026 30.3 856 25.28 -2.9 26.9 51 -11.7 11
09:50 1026 30.3 856 25.28 -2.7 27.1 49 -12 10.4
09:55 1026 30.3 856 25.28 -2.1 28.3 47 -12 10.5
10:00 1026 30.3 856 25.28 -1.8 28.8 45 -12.1 10.2
10:05 1026 30.3 856 25.28 -1.5 29.3 47 -11.4 11.4
10:10 1026 30.3 856 25.28 -2.1 28.3 47 -12.1 10.3
10:15 1027 30.33 856 25.28 -1.4 29.4 43 -12.5 9.4
10:20 1027 30.33 856 25.28 -0.7 30.8 42 -12 10.4
10:25 1027 30.33 856 25.28 -0.8 30.5 43 -12 10.4
10:30 1027 30.33 856 25.28 -0.8 30.6 45 -11.3 11.6
10:35 1027 30.33 856 25.28 -1.3 29.7 46 -11.5 11.2
10:40 1027 30.33 856 25.28 -1.1 30.1 44 -11.7 10.9
10:45 1026 30.3 856 25.28 -0.8 30.6 41 -12.5 9.5
10:50 1027 30.33 856 25.28 -0.5 31.1 39 -12.8 8.9
10:55 1027 30.33 856 25.28 -0.1 31.8 38 -12.9 8.8
11:00 1027 30.33 856 25.28 0.2 32.4 39 -12.3 9.9
11:05 1027 30.33 856 25.28 0.6 33.1 38 -12.1 10.2
11:10 1027 30.33 856 25.28 1 33.7 36 -12.4 9.7
11:15 1027 30.33 856 25.28 1.6 34.8 36 -12.1 10.1
11:20 1027 30.33 856 25.28 1.4 34.5 36 -12 10.4
11:25 1027 30.33 856 25.28 1.1 34 37 -11.9 10.6
11:30 1026 30.3 856 25.28 1.1 34 38 -11.6 11.2
11:35 1026 30.3 856 25.28 1.2 34.2 39 -11.2 11.8
11:40 1026 30.3 856 25.28 1.5 34.6 38 -11.2 11.8
11:45 1026 30.3 856 25.28 1.5 34.7 37 -11.6 11.2
11:50 1026 30.3 856 25.28 1.6 34.9 38 -11.2 11.9
11:55 1026 30.3 856 25.28 1.5 34.7 38 -11.3 11.7
12:00 1026 30.3 856 25.28 1.7 35 38 -11.2 11.8
12:05 1026 30.3 856 25.28 2.4 36.3 35 -11.5 11.4
12:10 1026 30.3 856 25.28 2.6 36.6 36 -11 12.2
12:15 1026 30.3 856 25.28 2.7 36.9 37 -10.8 12.6
12:20 1026 30.3 856 25.28 3 37.4 36 -10.6 12.9
12:25 1026 30.3 856 25.28 2.7 36.8 38 -10.2 13.7
12:30 1026 30.3 856 25.28 2.8 37.1 35 -11.2 11.8
12:35 1026 30.3 855 25.25 2.6 36.7 39 -10.1 13.9
12:40 1026 30.3 855 25.25 2.7 36.9 37 -10.4 13.3
12:45 1026 30.3 855 25.25 2.9 37.2 37 -10.2 13.6
12:50 1026 30.3 855 25.25 3.2 37.8 37 -10 13.9
12:55 1026 30.3 855 25.25 3.2 37.7 36 -10.7 12.8
13:00 1026 30.3 855 25.25 3.4 38.1 35 -10.7 12.7
13:05 1026 30.3 855 25.25 3.4 38.1 36 -10.5 13.1
13:10 1026 30.3 855 25.25 2.8 37 38 -10.2 13.6
13:15 1026 30.3 855 25.25 2.4 36.2 38 -10.7 12.7
13:20 1026 30.3 855 25.25 2.5 36.5 39 -10.2 13.6
13:25 1026 30.3 855 25.25 2.9 37.2 38 -10.1 13.8
13:30 1026 30.3 855 25.25 3.6 38.5 35 -10.6 13
13:35 1026 30.3 855 25.25 4 39.2 36 -9.8 14.3
13:40 1026 30.3 855 25.25 4.4 39.9 35 -9.6 14.6
13:45 1026 30.3 855 25.25 3.9 39 38 -9.2 15.4
13:50 1026 30.3 855 25.25 4 39.3 34 -10.5 13
13:55 1026 30.3 855 25.25 3.6 38.5 37 -9.8 14.4
14:00 1026 30.3 855 25.25 3.9 39 37 -9.6 14.7
14:05 1026 30.3 855 25.25 3.9 39.1 36 -9.8 14.3
14:10 1026 30.3 855 25.25 4.5 40.1 35 -9.7 14.5
14:15 1026 30.3 855 25.25 4.4 39.9 35 -9.6 14.7
14:20 1026 30.3 855 25.25 4.3 39.7 35 -9.9 14.1
14:25 1026 30.3 855 25.25 4.2 39.6 38 -9 15.7
14:30 1026 30.3 855 25.25 3.6 38.5 37 -9.6 14.7
14:35 1026 30.3 855 25.25 4.5 40 36 -9.4 15.1
14:40 1026 30.3 855 25.25 5 41 36 -9 15.7
14:45 1026 30.3 855 25.25 4.7 40.5 38 -8.5 16.6
14:50 1026 30.3 855 25.25 4.3 39.7 38 -8.7 16.3
14:55 1026 30.3 855 25.25 4.5 40 37 -9.1 15.6
15:00 1026 30.3 855 25.25 4.3 39.7 38 -8.9 15.9
15:05 1026 30.3 855 25.25 5 41 35 -9.4 15.1
15:10 1026 30.3 855 25.25 4.7 40.4 38 -8.6 16.5
15:15 1026 30.3 855 25.25 4.4 39.8 37 -9 15.7
15:20 1026 30.3 855 25.25 4.5 40.1 38 -8.8 16.2
15:25 1026 30.3 855 25.25 4.8 40.6 35 -9.5 14.9
15:30 1026 30.3 855 25.25 5.3 41.5 34 -9.5 15
15:35 1026 30.3 855 25.25 6.2 43.1 32 -9.5 14.8
15:40 1026 30.3 855 25.25 6.5 43.7 31 -9.4 15.1
15:45 1026 30.3 855 25.25 6.9 44.4 31 -9.3 15.3
15:50 1026 30.3 855 25.25 7.4 45.3 29 -9.6 14.7
15:55 1026 30.3 855 25.25 7.7 45.9 28 -9.7 14.6
16:00 1026 30.3 855 25.25 7.6 45.6 28 -9.7 14.5
16:05 1026 30.3 855 25.25 7.6 45.6 27 -10.3 13.5
16:10 1026 30.3 855 25.25 7.4 45.3 28 -10 13.9
16:15 1026 30.3 855 25.25 7.3 45.1 28 -9.9 14.1
16:20 1026 30.3 855 25.25 7.2 45 28 -10.3 13.5
16:25 1026 30.3 855 25.25 7.2 44.9 28 -10 13.9
16:30 1026 30.3 855 25.25 7 44.5 29 -9.9 14.2
16:35 1026 30.3 856 25.28 6.9 44.5 29 -10 14
16:40 1026 30.3 856 25.28 6.7 44 30 -9.7 14.5
16:45 1026 30.3 856 25.28 6.4 43.6 31 -9.4 15.1
16:50 1026 30.3 856 25.28 6.1 43 32 -9.5 14.8
16:55 1026 30.3 856 25.28 6 42.9 32 -9.4 15
17:00 1026 30.3 856 25.28 5.9 42.5 33 -9.4 15.1
17:05 1027 30.33 856 25.28 5.7 42.3 32 -9.8 14.3
17:10 1027 30.33 856 25.28 5.8 42.4 33 -9.4 15.1
17:15 1027 30.33 856 25.28 5.6 42.2 33 -9.5 14.9
17:20 1027 30.33 856 25.28 5.7 42.3 33 -9.4 15.1
17:25 1027 30.33 856 25.28 5.7 42.2 33 -9.5 15
17:30 1027 30.33 856 25.28 5.6 42 32 -9.7 14.6
17:35 1027 30.33 856 25.28 5.4 41.7 33 -9.6 14.7
17:40 1027 30.33 856 25.28 5.4 41.7 32 -9.9 14.1
17:45 1027 30.33 856 25.28 5.4 41.7 33 -9.6 14.6
17:50 1027 30.33 856 25.28 5.2 41.4 33 -9.8 14.4
17:55 1027 30.33 856 25.28 5 41.1 33 -9.8 14.3
18:00 1027 30.33 856 25.28 4.6 40.4 35 -9.4 15.1
18:05 1027 30.33 856 25.28 4.1 39.3 36 -9.7 14.5
18:10 1027 30.33 856 25.28 3.7 38.7 38 -9.4 15
18:15 1027 30.33 856 25.28 3.3 37.9 40 -9 15.8
18:20 1027 30.33 856 25.28 2.9 37.2 41 -9.2 15.4
18:25 1027 30.33 856 25.28 2.7 36.8 42 -9.1 15.6
18:30 1027 30.33 856 25.28 2.5 36.4 44 -8.7 16.3
18:35 1027 30.33 856 25.28 2.2 36 42 -9.5 14.9
18:40 1027 30.33 857 25.31 2.1 35.8 42 -9.4 15.1
18:45 1027 30.33 857 25.31 2.1 35.7 44 -9.1 15.7
18:50 1027 30.33 857 25.31 2.1 35.7 43 -9.3 15.3
18:55 1027 30.33 857 25.31 2.1 35.8 43 -9.1 15.6
19:00 1027 30.33 857 25.31 1.8 35.2 45 -8.8 16.1
19:05 1027 30.33 856 25.28 1.6 34.8 43 -9.8 14.4
19:10 1027 30.33 856 25.28 1.5 34.8 43 -9.6 14.7
19:15 1027 30.33 857 25.31 1.4 34.6 43 -9.7 14.6
19:20 1027 30.33 857 25.31 1.3 34.3 45 -9.5 14.9
19:25 1027 30.33 857 25.31 1.2 34.1 44 -9.8 14.4
19:30 1027 30.33 857 25.31 1.4 34.5 44 -9.7 14.6
19:35 1027 30.33 857 25.31 1.3 34.4 45 -9.2 15.4
19:40 1027 30.33 857 25.31 1 33.7 45 -9.6 14.8
19:45 1027 30.33 857 25.31 0.8 33.5 44 -10 14.1
19:50 1027 30.33 857 25.31 1 33.8 44 -10 14
19:55 1027 30.33 857 25.31 1.1 33.9 44 -10 14
20:00 1027 30.33 857 25.31 1.1 33.9 44 -9.9 14.2
20:05 1027 30.33 857 25.31 0.9 33.6 45 -9.6 14.6
20:10 1028 30.36 857 25.31 0.5 32.9 47 -9.6 14.8
20:15 1028 30.36 857 25.31 0.4 32.7 47 -9.5 14.9
20:20 1028 30.36 857 25.31 0.4 32.8 47 -9.6 14.7
20:25 1028 30.36 857 25.31 0.4 32.8 47 -9.5 14.9
20:30 1028 30.36 857 25.31 0.5 32.9 48 -9.4 15.1
20:35 1028 30.36 857 25.31 0.5 32.9 47 -9.4 15
20:40 1028 30.36 857 25.31 0.4 32.7 48 -9.4 15.1
20:45 1028 30.36 857 25.31 0.3 32.5 48 -9.6 14.7
20:50 1028 30.36 857 25.31 0.5 32.9 47 -9.5 14.9
20:55 1028 30.36 857 25.31 0.4 32.8 48 -9.4 15
21:00 1028 30.36 857 25.31 0.4 32.7 47 -9.7 14.5
21:05 1028 30.36 857 25.31 0.6 33.1 46 -9.8 14.3
21:10 1028 30.36 857 25.31 1.1 34 44 -9.8 14.4
21:15 1028 30.36 857 25.31 1.3 34.3 44 -9.6 14.7
21:20 1028 30.36 857 25.31 1.2 34.2 44 -9.7 14.5
21:25 1028 30.36 857 25.31 1.2 34.1 44 -9.8 14.4
21:30 1028 30.36 857 25.31 0.9 33.6 46 -9.4 15
21:35 1028 30.36 857 25.31 0.5 32.9 48 -9.4 15.1
21:40 1028 30.36 857 25.31 0.1 32.2 49 -9.5 14.9
21:45 1028 30.36 857 25.31 -0.1 31.9 49 -9.4 15
21:50 1028 30.36 857 25.31 -0.3 31.5 50 -9.6 14.7
21:55 1028 30.36 857 25.31 -0.4 31.2 50 -9.6 14.7
22:00 1028 30.36 857 25.31 -0.7 30.8 51 -9.6 14.7
22:05 1028 30.36 857 25.31 -0.8 30.6 52 -9.6 14.8
22:10 1028 30.36 858 25.34 -0.8 30.6 52 -9.4 15.1
22:15 1028 30.36 857 25.31 -0.8 30.5 52 -9.5 15
22:20 1028 30.36 857 25.31 -0.8 30.5 52 -9.6 14.7
22:25 1028 30.36 857 25.31 -0.8 30.5 52 -9.6 14.7
22:30 1028 30.36 858 25.34 -0.8 30.6 51 -9.6 14.7
22:35 1028 30.36 858 25.34 -0.9 30.5 52 -9.5 14.9
22:40 1028 30.36 858 25.34 -0.9 30.3 52 -9.6 14.7
22:45 1028 30.36 858 25.34 -1 30.1 52 -9.8 14.4
22:50 1028 30.36 858 25.34 -0.9 30.3 52 -9.7 14.6
22:55 1028 30.36 858 25.34 -0.9 30.4 51 -9.9 14.2
23:00 1028 30.36 858 25.34 -0.8 30.5 50 -9.9 14.2
23:05 1028 30.36 858 25.34 -0.6 30.8 50 -9.9 14.2
23:10 1028 30.36 858 25.34 -0.6 30.8 50 -9.9 14.2
23:15 1028 30.36 858 25.34 -0.8 30.6 50 -9.8 14.3
23:20 1028 30.36 858 25.34 -0.8 30.6 50 -10 14
23:25 1028 30.36 858 25.34 -0.7 30.7 51 -9.8 14.4
23:30 1028 30.36 858 25.34 -0.9 30.4 51 -9.9 14.2
23:35 1028 30.36 858 25.34 -0.9 30.4 51 -9.8 14.3
23:40 1028 30.36 858 25.34 -0.8 30.6 50 -10 14
23:45 1028 30.36 858 25.34 -0.7 30.7 51 -9.6 14.7
23:50 1028 30.36 858 25.34 -1.7 28.9 58 -9 15.8
23:55 1028 30.36 858 25.34 -2.6 27.3 57 -9.9 14.2
24:00 1028 30.36 858 25.34 -1.9 28.6 53 -10.2 13.6